createdAt,value
2019-05-10T00:02:14.262Z,64.60
2019-05-10T00:05:00.245Z,65.09
2019-05-10T00:07:46.552Z,65.44
2019-05-10T00:10:14.411Z,65.26
2019-05-10T00:12:46.889Z,65.42
2019-05-10T00:15:16.336Z,65.37
2019-05-10T00:17:45.094Z,65.28
2019-05-10T00:20:13.934Z,65.02
2019-05-10T00:22:42.341Z,64.82
2019-05-10T00:25:11.157Z,64.47
2019-05-10T00:27:39.565Z,64.14
2019-05-10T00:30:08.635Z,64.02
2019-05-10T00:32:37.060Z,63.82
2019-05-10T00:35:06.891Z,63.69
2019-05-10T00:37:35.283Z,63.59
2019-05-10T00:40:06.117Z,63.40
2019-05-10T00:42:34.593Z,63.21
2019-05-10T00:45:03.625Z,62.89
2019-05-10T00:47:32.166Z,62.69
2019-05-10T00:50:00.571Z,62.47
2019-05-10T00:52:28.977Z,62.45
2019-05-10T00:54:57.540Z,62.45
2019-05-10T00:57:25.946Z,62.38
2019-05-10T00:59:54.384Z,62.35
2019-05-10T01:02:22.808Z,62.29
2019-05-10T01:04:51.206Z,62.32
2019-05-10T01:07:19.611Z,62.36
2019-05-10T01:09:48.279Z,62.41
2019-05-10T01:12:16.785Z,62.36
2019-05-10T01:14:45.245Z,62.35
2019-05-10T01:17:13.975Z,62.30
2019-05-10T01:19:42.450Z,62.38
2019-05-10T01:22:10.995Z,62.40
2019-05-10T01:24:39.505Z,62.50
2019-05-10T01:27:08.046Z,62.51
2019-05-10T01:29:36.455Z,62.50
2019-05-10T01:32:05.164Z,62.29
2019-05-10T01:34:33.673Z,62.18
2019-05-10T01:37:02.101Z,61.96
2019-05-10T01:39:30.721Z,61.99
2019-05-10T01:41:59.129Z,62.28
2019-05-10T01:44:27.533Z,62.64
2019-05-10T01:46:55.977Z,62.74
2019-05-10T01:49:24.387Z,62.72
2019-05-10T01:51:52.792Z,63.08
2019-05-10T01:54:21.379Z,63.27
2019-05-10T01:56:49.777Z,63.40
2019-05-10T01:59:18.190Z,63.69
2019-05-10T02:01:46.825Z,63.86
2019-05-10T02:04:17.866Z,63.95
2019-05-10T02:06:46.537Z,64.01
2019-05-10T02:09:15.101Z,64.21
2019-05-10T02:11:43.502Z,64.26
2019-05-10T02:14:11.905Z,63.90
2019-05-10T02:16:40.361Z,63.85
2019-05-10T02:19:08.763Z,63.85
2019-05-10T02:21:37.169Z,63.83
2019-05-10T02:24:05.701Z,64.03
2019-05-10T02:26:34.133Z,64.01
2019-05-10T02:29:02.541Z,64.42
2019-05-10T02:31:31.044Z,64.93
2019-05-10T02:33:59.461Z,65.11
2019-05-10T02:36:27.854Z,65.14
2019-05-10T02:38:56.286Z,65.31
2019-05-10T02:41:24.763Z,65.41
2019-05-10T02:43:53.257Z,65.71
2019-05-10T02:46:21.684Z,65.60
2019-05-10T02:48:50.094Z,65.59
2019-05-10T02:51:18.509Z,65.64
2019-05-10T02:53:47.142Z,65.96
2019-05-10T02:56:29.694Z,65.97
2019-05-10T02:58:46.830Z,65.97
2019-05-10T03:01:17.436Z,66.04
2019-05-10T03:03:47.419Z,66.21
2019-05-10T03:06:17.809Z,66.29
2019-05-10T03:08:53.262Z,66.54
2019-05-10T03:11:21.904Z,66.58
2019-05-10T03:13:52.269Z,66.67
2019-05-10T03:16:23.198Z,66.55
2019-05-10T03:18:53.316Z,66.48
2019-05-10T03:21:24.117Z,66.53
2019-05-10T03:23:52.713Z,66.51
2019-05-10T03:26:21.237Z,66.52
2019-05-10T03:28:49.645Z,66.59
2019-05-10T03:31:18.163Z,66.55
2019-05-10T03:33:55.131Z,66.58
2019-05-10T03:36:16.917Z,66.55
2019-05-10T03:38:45.975Z,66.44
2019-05-10T03:41:14.655Z,66.39
2019-05-10T03:43:43.059Z,66.35
2019-05-10T03:46:11.491Z,66.32
2019-05-10T03:48:39.900Z,66.42
2019-05-10T03:51:08.350Z,66.39
2019-05-10T03:53:36.860Z,66.57
2019-05-10T03:56:05.358Z,66.80
2019-05-10T03:58:33.765Z,67.04
2019-05-10T04:01:02.309Z,67.38
2019-05-10T04:03:30.764Z,67.43
2019-05-10T04:05:59.149Z,67.59
2019-05-10T04:08:27.634Z,67.84
2019-05-10T04:10:56.043Z,68.08
2019-05-10T04:13:24.461Z,68.33
2019-05-10T04:15:54.664Z,68.42
2019-05-10T04:18:23.142Z,68.59
2019-05-10T04:20:51.585Z,68.65
2019-05-10T04:23:19.991Z,68.70
2019-05-10T04:25:48.459Z,68.69
2019-05-10T04:28:16.873Z,68.79
2019-05-10T04:30:46.930Z,68.95
2019-05-10T04:33:15.337Z,69.02
2019-05-10T04:35:43.746Z,69.17
2019-05-10T04:38:12.358Z,69.27
2019-05-10T04:40:40.772Z,69.31
2019-05-10T04:43:11.605Z,69.33
2019-05-10T04:45:39.666Z,69.52
2019-05-10T04:48:08.093Z,69.64
2019-05-10T04:50:36.493Z,69.69
2019-05-10T04:53:05.163Z,69.66
2019-05-10T04:55:34.921Z,69.69
2019-05-10T04:58:03.321Z,69.62
2019-05-10T05:00:31.748Z,69.71
2019-05-10T05:03:00.174Z,69.80
2019-05-10T05:05:28.606Z,69.84
2019-05-10T05:07:57.063Z,69.88
2019-05-10T05:10:25.470Z,69.84
2019-05-10T05:12:53.885Z,69.88
2019-05-10T05:15:22.405Z,70.10
2019-05-10T05:17:50.821Z,70.19
2019-05-10T05:20:19.205Z,70.28
2019-05-10T05:22:47.915Z,70.20
2019-05-10T05:25:16.479Z,70.15
2019-05-10T05:27:44.861Z,70.07
2019-05-10T05:30:13.654Z,69.91
2019-05-10T05:32:44.345Z,69.87
2019-05-10T05:35:15.410Z,69.86
2019-05-10T05:37:42.874Z,69.79
2019-05-10T05:40:11.632Z,69.59
2019-05-10T05:42:40.047Z,69.51
2019-05-10T05:45:09.238Z,69.43
2019-05-10T05:47:42.301Z,69.48
2019-05-10T05:50:08.635Z,69.38
2019-05-10T05:52:37.360Z,69.20
2019-05-10T05:55:06.912Z,68.95
2019-05-10T05:57:35.397Z,68.84
2019-05-10T06:00:10.781Z,68.66
2019-05-10T06:02:44.350Z,68.49
2019-05-10T06:05:09.657Z,68.38
2019-05-10T06:07:39.402Z,68.42
2019-05-10T06:10:10.260Z,68.43
2019-05-10T06:12:38.421Z,68.68
2019-05-10T06:15:07.927Z,68.42
2019-05-10T06:17:36.328Z,68.52
2019-05-10T06:20:09.270Z,68.55
2019-05-10T06:22:43.685Z,68.55
2019-05-10T06:25:08.829Z,68.53
2019-05-10T06:27:41.146Z,68.66
2019-05-10T06:30:08.113Z,68.74
2019-05-10T06:32:36.517Z,68.59
2019-05-10T06:35:06.719Z,68.64
2019-05-10T06:37:35.303Z,68.48
2019-05-10T06:40:04.961Z,68.24
2019-05-10T06:42:34.722Z,68.17
2019-05-10T06:45:14.241Z,67.75
2019-05-10T06:47:36.249Z,67.53
2019-05-10T06:50:29.870Z,67.43
2019-05-10T06:53:00.468Z,67.11
2019-05-10T06:55:26.579Z,66.82
2019-05-10T06:57:59.480Z,66.71
2019-05-10T07:00:25.701Z,66.49
2019-05-10T07:02:54.103Z,65.87
2019-05-10T07:05:24.301Z,65.50
2019-05-10T07:07:52.706Z,65.32
2019-05-10T07:10:25.215Z,65.00
2019-05-10T07:12:56.459Z,64.74
2019-05-10T07:15:21.623Z,64.39
2019-05-10T07:17:50.027Z,64.00
2019-05-10T07:20:18.557Z,63.91
2019-05-10T07:22:46.994Z,63.77
2019-05-10T07:25:15.465Z,63.49
2019-05-10T07:27:44.289Z,63.18
2019-05-10T07:30:13.210Z,62.53
2019-05-10T07:32:41.661Z,61.91
2019-05-10T07:35:11.499Z,61.39
2019-05-10T07:37:39.909Z,61.13
2019-05-10T07:40:08.487Z,61.26
2019-05-10T07:42:39.950Z,60.93
2019-05-10T07:45:07.931Z,60.37
2019-05-10T07:47:36.346Z,59.93
2019-05-10T07:50:09.694Z,59.43
2019-05-10T07:52:43.103Z,59.25
2019-05-10T07:55:10.286Z,58.96
2019-05-10T07:57:38.099Z,58.35
2019-05-10T08:00:07.423Z,58.06
2019-05-10T08:02:35.832Z,58.07
2019-05-10T08:05:11.012Z,57.91
2019-05-10T08:07:38.586Z,57.82
2019-05-10T08:10:08.792Z,57.86
2019-05-10T08:12:41.290Z,57.70
2019-05-10T08:15:09.566Z,57.39
2019-05-10T08:17:43.283Z,57.19
2019-05-10T08:20:16.181Z,57.19
2019-05-10T08:22:41.347Z,57.08
2019-05-10T08:25:09.565Z,56.75
2019-05-10T08:27:44.039Z,56.24
2019-05-10T08:30:22.727Z,56.10
2019-05-10T08:32:39.307Z,55.97
2019-05-10T08:35:16.366Z,55.99
2019-05-10T08:37:38.232Z,55.60
2019-05-10T08:40:06.760Z,55.35
2019-05-10T08:42:44.397Z,55.46
2019-05-10T08:45:08.757Z,55.08
2019-05-10T08:47:37.386Z,54.80
2019-05-10T08:50:26.326Z,55.04
2019-05-10T08:52:37.555Z,54.46
2019-05-10T08:55:07.333Z,54.23
2019-05-10T08:57:43.299Z,54.15
2019-05-10T09:00:09.253Z,53.73
2019-05-10T09:02:37.725Z,53.71
2019-05-10T09:05:06.565Z,53.64
2019-05-10T09:07:38.952Z,53.42
2019-05-10T09:10:09.641Z,53.30
2019-05-10T09:12:41.752Z,53.30
2019-05-10T09:15:10.292Z,53.28
2019-05-10T09:17:39.192Z,53.06
2019-05-10T09:20:14.075Z,52.73
2019-05-10T09:22:39.149Z,52.40
2019-05-10T09:25:07.797Z,52.05
2019-05-10T09:27:36.443Z,51.75
2019-05-10T09:30:08.084Z,51.67
2019-05-10T09:32:39.807Z,51.76
2019-05-10T09:35:09.269Z,51.66
2019-05-10T09:37:37.849Z,51.37
2019-05-10T09:40:09.979Z,51.35
2019-05-10T09:42:40.798Z,51.20
2019-05-10T09:45:09.732Z,50.68
2019-05-10T09:47:38.483Z,50.33
2019-05-10T09:50:07.262Z,50.35
2019-05-10T09:52:35.714Z,50.11
2019-05-10T09:55:10.151Z,49.49
2019-05-10T09:57:37.985Z,49.01
2019-05-10T10:00:08.337Z,49.00
2019-05-10T10:02:37.355Z,48.46
2019-05-10T10:05:08.185Z,46.95
2019-05-10T10:07:37.375Z,47.21
2019-05-10T10:10:07.476Z,47.07
2019-05-10T10:12:37.291Z,47.86
2019-05-10T10:15:09.239Z,47.22
2019-05-10T10:17:41.950Z,46.82
2019-05-10T10:20:08.349Z,46.79
2019-05-10T10:22:38.078Z,46.78
2019-05-10T10:25:07.439Z,47.18
2019-05-10T10:27:39.283Z,46.97
2019-05-10T10:30:12.861Z,46.67
2019-05-10T10:32:37.718Z,47.02
2019-05-10T10:35:07.965Z,46.64
2019-05-10T10:37:37.849Z,46.01
2019-05-10T10:40:08.714Z,45.53
2019-05-10T10:42:38.216Z,44.89
2019-05-10T10:45:10.141Z,44.54
2019-05-10T10:47:38.547Z,44.64
2019-05-10T10:50:13.148Z,44.94
2019-05-10T10:52:38.655Z,43.95
2019-05-10T10:55:11.219Z,43.48
2019-05-10T10:57:38.242Z,43.25
2019-05-10T11:00:08.300Z,43.27
2019-05-10T11:02:36.740Z,43.67
2019-05-10T11:05:07.305Z,43.67
2019-05-10T11:07:38.530Z,43.46
2019-05-10T11:10:16.047Z,43.75
2019-05-10T11:12:37.769Z,43.75
2019-05-10T11:15:06.510Z,43.75
2019-05-10T11:17:34.922Z,43.17
2019-05-10T11:20:08.468Z,42.89
2019-05-10T11:22:35.431Z,42.88
2019-05-10T11:25:09.539Z,43.11
2019-05-10T11:27:34.836Z,41.97
2019-05-10T11:30:04.288Z,40.94
2019-05-10T11:32:32.692Z,41.41
2019-05-10T11:35:01.110Z,41.32
2019-05-10T11:37:34.454Z,41.36
2019-05-10T11:40:01.792Z,41.38
2019-05-10T11:42:31.044Z,41.60
2019-05-10T11:45:00.752Z,41.85
2019-05-10T11:47:31.224Z,41.89
2019-05-10T11:50:06.068Z,41.67
2019-05-10T11:52:34.634Z,41.88
2019-05-10T11:55:01.264Z,40.90
2019-05-10T11:57:32.875Z,40.86
2019-05-10T12:00:00.116Z,41.04
2019-05-10T12:02:42.058Z,41.05
2019-05-10T12:05:10.054Z,41.01
2019-05-10T12:07:35.121Z,40.08
2019-05-10T12:10:08.338Z,40.11
2019-05-10T12:12:50.557Z,40.25
2019-05-10T12:15:04.076Z,40.63
2019-05-10T12:17:30.214Z,40.04
2019-05-10T12:20:02.241Z,40.34
2019-05-10T12:22:38.146Z,40.06
2019-05-10T12:25:20.674Z,40.13
2019-05-10T12:27:44.310Z,40.01
2019-05-10T12:30:03.260Z,39.68
2019-05-10T12:32:35.212Z,39.43
2019-05-10T12:35:01.457Z,39.17
2019-05-10T12:37:30.829Z,39.24
2019-05-10T12:40:06.283Z,39.65
2019-05-10T12:42:31.673Z,39.52
2019-05-10T12:45:01.281Z,39.96
2019-05-10T12:47:30.601Z,42.31
2019-05-10T12:50:01.896Z,44.35
2019-05-10T12:52:32.038Z,45.56
2019-05-10T12:55:00.667Z,46.19
2019-05-10T12:57:29.368Z,46.66
2019-05-10T12:59:57.780Z,46.86
2019-05-10T13:02:26.202Z,47.42
2019-05-10T13:04:54.810Z,47.43
2019-05-10T13:07:23.263Z,47.58
2019-05-10T13:10:01.657Z,47.56
2019-05-10T13:12:21.911Z,47.29
2019-05-10T13:14:52.910Z,47.30
2019-05-10T13:17:20.439Z,47.37
2019-05-10T13:19:52.800Z,47.65
2019-05-10T13:22:19.004Z,47.72
2019-05-10T13:24:47.409Z,47.89
2019-05-10T13:27:15.843Z,47.99
2019-05-10T13:29:47.181Z,48.32
2019-05-10T13:32:14.883Z,48.25
2019-05-10T13:34:44.657Z,48.41
2019-05-10T13:37:23.216Z,48.71
2019-05-10T13:39:43.270Z,48.45
2019-05-10T13:42:11.705Z,48.02
2019-05-10T13:44:42.890Z,47.84
2019-05-10T13:47:10.330Z,48.23
2019-05-10T13:49:38.943Z,47.83
2019-05-10T13:52:07.336Z,47.31
2019-05-10T13:54:36.368Z,47.19
2019-05-10T13:57:05.934Z,47.62
2019-05-10T13:59:34.442Z,47.71
2019-05-10T14:02:02.851Z,47.59
2019-05-10T14:04:33.918Z,47.63
2019-05-10T14:07:01.448Z,47.67
2019-05-10T14:09:29.858Z,47.97
2019-05-10T14:11:58.280Z,47.47
2019-05-10T14:14:27.007Z,47.37
2019-05-10T14:16:55.496Z,47.36
2019-05-10T14:19:25.553Z,47.56
2019-05-10T14:21:54.408Z,47.65
2019-05-10T14:24:23.598Z,47.36
2019-05-10T14:26:57.012Z,46.94
2019-05-10T14:29:32.971Z,46.73
2019-05-10T14:31:52.323Z,47.09
2019-05-10T14:34:20.901Z,47.34
2019-05-10T14:36:49.313Z,46.96
2019-05-10T14:39:17.717Z,46.57
2019-05-10T14:41:50.849Z,46.89
2019-05-10T14:44:17.184Z,47.52
2019-05-10T14:46:45.595Z,47.72
2019-05-10T14:49:14.036Z,47.96
2019-05-10T14:51:57.657Z,47.21
2019-05-10T14:54:12.650Z,46.62
2019-05-10T14:56:41.085Z,46.71
2019-05-10T14:59:09.488Z,46.87
2019-05-10T15:01:42.802Z,46.90
2019-05-10T15:04:09.624Z,46.62
2019-05-10T15:06:39.022Z,46.35
2019-05-10T15:09:20.257Z,46.41
2019-05-10T15:11:38.773Z,46.53
2019-05-10T15:14:07.331Z,46.48
2019-05-10T15:16:36.116Z,46.64
2019-05-10T15:19:04.722Z,46.46
2019-05-10T15:21:34.708Z,45.74
2019-05-10T15:24:03.371Z,45.41
2019-05-10T15:26:37.510Z,45.35
2019-05-10T15:29:02.322Z,45.43
2019-05-10T15:31:30.886Z,45.49
2019-05-10T15:34:04.163Z,45.70
2019-05-10T15:36:31.695Z,45.86
2019-05-10T15:38:59.852Z,46.04
2019-05-10T15:41:28.629Z,45.68
2019-05-10T15:43:57.029Z,45.51
2019-05-10T15:46:35.286Z,45.67
2019-05-10T15:48:55.585Z,45.51
2019-05-10T15:51:35.664Z,45.98
2019-05-10T15:54:03.781Z,46.06
2019-05-10T15:56:24.362Z,45.67
2019-05-10T15:58:52.765Z,45.33
2019-05-10T16:01:27.153Z,45.27
2019-05-10T16:03:51.476Z,45.26
2019-05-10T16:06:19.907Z,45.23
2019-05-10T16:08:48.340Z,45.37
2019-05-10T16:11:18.879Z,45.62
2019-05-10T16:13:47.010Z,45.75
2019-05-10T16:16:15.416Z,45.89
2019-05-10T16:18:44.041Z,46.12
2019-05-10T16:21:15.096Z,46.15
2019-05-10T16:23:46.810Z,46.44
2019-05-10T16:26:17.357Z,46.87
2019-05-10T16:28:42.884Z,47.34
2019-05-10T16:31:11.420Z,47.79
2019-05-10T16:33:40.036Z,48.44
2019-05-10T16:36:08.491Z,48.90
2019-05-10T16:38:36.935Z,49.39
2019-05-10T16:41:05.488Z,49.58
2019-05-10T16:43:33.895Z,49.38
2019-05-10T16:46:02.386Z,49.06
2019-05-10T16:48:30.825Z,48.85
2019-05-10T16:51:03.874Z,48.75
2019-05-10T16:53:31.421Z,48.78
2019-05-10T16:55:59.632Z,48.85
2019-05-10T16:58:28.050Z,49.17
2019-05-10T17:00:56.474Z,49.41
2019-05-10T17:03:24.916Z,49.60
2019-05-10T17:05:58.375Z,49.80
2019-05-10T17:08:23.489Z,50.22
2019-05-10T17:10:52.168Z,50.63
2019-05-10T17:13:20.576Z,50.82
2019-05-10T17:15:48.984Z,50.73
2019-05-10T17:18:19.821Z,50.87
2019-05-10T17:20:50.837Z,51.00
2019-05-10T17:23:17.945Z,51.16
2019-05-10T17:25:46.638Z,51.57
2019-05-10T17:28:15.039Z,51.85
2019-05-10T17:30:44.860Z,52.06
2019-05-10T17:33:13.592Z,52.42
2019-05-10T17:35:43.801Z,52.60
2019-05-10T17:38:14.223Z,52.70
2019-05-10T17:40:47.940Z,53.00
2019-05-10T17:43:14.156Z,53.08
2019-05-10T17:45:42.910Z,53.08
2019-05-10T17:48:11.519Z,53.13
2019-05-10T17:50:39.934Z,53.13
2019-05-10T17:53:08.351Z,53.11
2019-05-10T17:55:36.812Z,53.22
2019-05-10T17:58:05.224Z,53.25
2019-05-10T18:00:33.636Z,53.36
2019-05-10T18:03:02.057Z,53.56
2019-05-10T18:05:30.462Z,53.63
2019-05-10T18:07:58.884Z,53.71
2019-05-10T18:10:27.331Z,53.82
2019-05-10T18:12:57.270Z,53.93
2019-05-10T18:15:27.626Z,54.16
2019-05-10T18:17:57.532Z,54.29
2019-05-10T18:20:26.296Z,54.33
2019-05-10T18:22:54.716Z,54.44
2019-05-10T18:25:23.379Z,54.28
2019-05-10T18:27:51.781Z,54.10
2019-05-10T18:30:21.241Z,54.18
2019-05-10T18:32:49.667Z,54.22
2019-05-10T18:35:18.084Z,54.32
2019-05-10T18:37:46.507Z,54.46
2019-05-10T18:40:15.590Z,54.60
2019-05-10T18:42:44.010Z,54.68
2019-05-10T18:45:12.660Z,54.64
2019-05-10T18:47:41.098Z,54.72
2019-05-10T18:50:10.069Z,54.91
2019-05-10T18:52:38.477Z,55.12
2019-05-10T18:55:07.267Z,55.40
2019-05-10T18:57:35.675Z,55.91
2019-05-10T19:00:05.371Z,56.41
2019-05-10T19:02:33.999Z,56.92
2019-05-10T19:05:02.409Z,57.23
2019-05-10T19:07:30.832Z,57.52
2019-05-10T19:09:59.484Z,57.67
2019-05-10T19:12:28.326Z,57.76
2019-05-10T19:15:02.411Z,57.99
2019-05-10T19:17:27.171Z,58.17
2019-05-10T19:19:55.651Z,58.26
2019-05-10T19:22:24.057Z,58.55
2019-05-10T19:24:56.512Z,58.51
2019-05-10T19:27:25.081Z,58.56
2019-05-10T19:29:53.015Z,58.56
2019-05-10T19:32:21.440Z,58.67
2019-05-10T19:34:57.097Z,58.64
2019-05-10T19:37:29.651Z,58.60
2019-05-10T19:39:50.172Z,58.78
2019-05-10T19:42:18.570Z,58.90
2019-05-10T19:44:46.986Z,59.07
2019-05-10T19:47:17.544Z,59.34
2019-05-10T19:49:51.224Z,59.77
2019-05-10T19:52:21.144Z,60.03
2019-05-10T19:54:46.114Z,59.86
2019-05-10T19:57:16.208Z,59.70
2019-05-10T19:59:48.748Z,59.54
2019-05-10T20:02:16.540Z,59.50
2019-05-10T20:04:46.487Z,59.74
2019-05-10T20:07:14.902Z,59.51
2019-05-10T20:09:43.344Z,59.39
2019-05-10T20:12:11.750Z,59.58
2019-05-10T20:14:40.160Z,59.97
2019-05-10T20:17:08.772Z,59.81
2019-05-10T20:19:37.173Z,59.78
2019-05-10T20:22:05.591Z,59.74
2019-05-10T20:24:34.217Z,59.75
2019-05-10T20:27:02.623Z,59.66
2019-05-10T20:29:31.034Z,59.78
2019-05-10T20:31:59.546Z,59.60
2019-05-10T20:34:27.954Z,59.80
2019-05-10T20:36:56.361Z,60.13
2019-05-10T20:39:24.998Z,60.07
2019-05-10T20:41:53.510Z,59.99
2019-05-10T20:44:21.923Z,59.79
2019-05-10T20:46:50.369Z,59.46
2019-05-10T20:49:18.788Z,59.26
2019-05-10T20:51:47.189Z,59.14
2019-05-10T20:54:15.759Z,59.02
2019-05-10T20:56:44.167Z,59.05
2019-05-10T20:59:12.584Z,59.09
2019-05-10T21:01:41.635Z,59.21
2019-05-10T21:04:10.042Z,59.34
2019-05-10T21:06:38.455Z,59.35
2019-05-10T21:09:07.131Z,59.38
2019-05-10T21:11:35.606Z,59.30
2019-05-10T21:14:04.099Z,59.13
2019-05-10T21:16:32.538Z,59.08
2019-05-10T21:19:00.940Z,59.07
2019-05-10T21:21:29.355Z,58.96
2019-05-10T21:23:57.958Z,59.05
2019-05-10T21:26:26.433Z,59.17
2019-05-10T21:28:54.880Z,59.30
2019-05-10T21:31:23.409Z,59.42
2019-05-10T21:33:51.810Z,59.52
2019-05-10T21:36:20.269Z,59.40
2019-05-10T21:38:48.937Z,59.33
2019-05-10T21:41:17.347Z,59.28
2019-05-10T21:43:45.748Z,59.37
2019-05-10T21:46:14.406Z,59.44
2019-05-10T21:48:42.817Z,59.42
2019-05-10T21:51:11.282Z,59.37
2019-05-10T21:53:39.933Z,59.43
2019-05-10T21:56:08.336Z,59.54
2019-05-10T21:58:36.740Z,59.54
2019-05-10T22:01:05.237Z,59.58
2019-05-10T22:03:35.304Z,59.70
2019-05-10T22:06:03.721Z,59.73
2019-05-10T22:08:47.211Z,59.78
2019-05-10T22:11:02.297Z,59.92
2019-05-10T22:13:30.706Z,59.87
2019-05-10T22:15:59.223Z,59.81
2019-05-10T22:18:27.634Z,60.18
2019-05-10T22:20:56.036Z,60.54
2019-05-10T22:23:24.568Z,60.95
2019-05-10T22:25:52.976Z,61.11
2019-05-10T22:28:21.380Z,61.29
2019-05-10T22:30:49.881Z,61.67
2019-05-10T22:33:18.289Z,61.83
2019-05-10T22:35:46.684Z,61.83
2019-05-10T22:38:15.116Z,62.02
2019-05-10T22:40:43.520Z,62.13
2019-05-10T22:43:11.917Z,61.94
2019-05-10T22:45:40.484Z,61.72
2019-05-10T22:48:08.888Z,61.69
2019-05-10T22:50:37.331Z,61.78
2019-05-10T22:53:05.774Z,61.63
2019-05-10T22:55:34.172Z,61.55
2019-05-10T22:58:02.773Z,61.77
2019-05-10T23:00:31.569Z,61.79
2019-05-10T23:02:59.979Z,61.72
2019-05-10T23:05:28.378Z,61.95
2019-05-10T23:07:56.920Z,62.27
2019-05-10T23:10:25.326Z,62.61
2019-05-10T23:12:53.730Z,62.69
2019-05-10T23:15:22.253Z,62.71
2019-05-10T23:17:50.663Z,63.06
2019-05-10T23:20:19.082Z,63.07
2019-05-10T23:22:47.572Z,63.35
2019-05-10T23:25:15.932Z,63.30
2019-05-10T23:27:44.360Z,63.48
2019-05-10T23:30:12.964Z,63.83
2019-05-10T23:32:41.365Z,63.98
2019-05-10T23:35:10.048Z,64.12
2019-05-10T23:37:38.584Z,64.33
2019-05-10T23:40:07.426Z,64.39
2019-05-10T23:42:35.976Z,64.28
2019-05-10T23:45:06.540Z,64.15
2019-05-10T23:47:34.949Z,64.05
2019-05-10T23:50:03.421Z,64.36
2019-05-10T23:52:31.924Z,64.59
2019-05-10T23:55:00.475Z,64.44
2019-05-10T23:57:28.902Z,64.39
2019-05-10T23:59:57.584Z,64.28
